Time;durP1;ratioP1;P1;durP2;ratioP2;P2;SDS_P1;SDS_P2;PMS_P1;PMS_P2;Temp;Humidity;BMP_temperature;BMP_pressure;BME280_temperature;BME280_humidity;BME280_pressure;Samples;Min_cycle;Max_cycle;Signal;HPM_P1;HPM_P2
2022/09/27 00:01:21;;;;;;;1.10;1.00;;;10.70;99.90;;;;;;4996755;28;20286;-86
2022/09/27 00:03:47;;;;;;;0.83;0.83;;;10.70;99.90;;;;;;4996611;28;20183;-86
2022/09/27 00:06:24;;;;;;;0.80;0.80;;;10.70;99.90;;;;;;5013560;28;20241;-86
2022/09/27 00:08:50;;;;;;;0.90;0.77;;;10.70;99.90;;;;;;5016449;28;20182;-86
2022/09/27 00:11:29;;;;;;;1.80;0.80;;;10.70;99.90;;;;;;5016433;28;20185;-86
2022/09/27 00:13:57;;;;;;;0.80;0.80;;;10.60;99.90;;;;;;4996691;28;20182;-86
2022/09/27 00:16:26;;;;;;;0.70;0.70;;;10.60;99.90;;;;;;5013068;28;20206;-86
2022/09/27 00:18:52;;;;;;;0.57;0.57;;;10.60;99.90;;;;;;5026209;28;20183;-86
2022/09/27 00:21:18;;;;;;;0.70;0.70;;;10.60;99.90;;;;;;4996964;28;20268;-86
2022/09/27 00:23:44;;;;;;;0.70;0.67;;;10.60;99.90;;;;;;4997638;28;20191;-86
2022/09/27 00:26:12;;;;;;;0.80;0.60;;;10.60;99.90;;;;;;5012917;28;20199;-86
2022/09/27 00:28:39;;;;;;;0.73;0.60;;;10.60;99.90;;;;;;4999472;28;20170;-86
2022/09/27 00:31:16;;;;;;;0.87;0.60;;;10.60;99.90;;;;;;5015847;28;20177;-86
2022/09/27 00:33:41;;;;;;;0.50;0.50;;;10.60;99.90;;;;;;5029140;28;20174;-86
2022/09/27 00:36:08;;;;;;;0.80;0.70;;;10.60;99.90;;;;;;5012825;28;20195;-86
2022/09/27 00:38:34;;;;;;;0.90;0.60;;;10.70;99.90;;;;;;4997990;28;20198;-86
2022/09/27 00:41:00;;;;;;;0.47;0.43;;;10.60;99.90;;;;;;5016179;28;20294;-87
2022/09/27 00:43:41;;;;;;;1.70;0.70;;;10.70;99.90;;;;;;5017161;28;20194;-86
2022/09/27 00:46:07;;;;;;;0.53;0.50;;;10.60;99.90;;;;;;5038903;28;20209;-86
2022/09/27 00:48:35;;;;;;;2.23;0.60;;;10.60;99.90;;;;;;5019613;28;20642;-86
2022/09/27 00:51:04;;;;;;;0.50;0.50;;;10.60;99.90;;;;;;5036759;28;20205;-86
2022/09/27 00:53:32;;;;;;;0.80;0.50;;;10.60;99.90;;;;;;5017662;28;20224;-86
2022/09/27 00:56:11;;;;;;;1.30;0.70;;;10.60;99.90;;;;;;5016743;28;20206;-86
2022/09/27 00:58:45;;;;;;;0.60;0.60;;;10.60;99.90;;;;;;5035825;28;20635;-86
2022/09/27 01:01:14;;;;;;;1.57;0.80;;;10.60;99.90;;;;;;5020117;28;20260;-86
2022/09/27 01:03:51;;;;;;;1.93;0.63;;;10.60;99.90;;;;;;5016418;28;20178;-86
2022/09/27 01:06:19;;;;;;;0.40;0.40;;;10.60;99.90;;;;;;5017639;28;20197;-86
2022/09/27 01:08:45;;;;;;;0.70;0.60;;;10.60;99.90;;;;;;4999914;28;20182;-86
2022/09/27 01:11:30;;;;;;;0.60;0.60;;;10.60;99.90;;;;;;5006366;28;20175;-86
2022/09/27 01:14:02;;;;;;;0.50;0.50;;;10.60;99.90;;;;;;5019583;28;20243;-86
2022/09/27 01:17:01;;;;;;;0.50;0.50;;;10.70;99.90;;;;;;5009151;28;20206;-86
2022/09/27 01:20:05;;;;;;;0.50;0.50;;;10.70;99.90;;;;;;5017580;28;20209;-86
2022/09/27 01:22:36;;;;;;;0.93;0.47;;;10.70;99.90;;;;;;5015916;28;20249;-86
2022/09/27 01:25:12;;;;;;;0.50;0.50;;;10.70;99.90;;;;;;5016681;28;20195;-86
2022/09/27 01:28:05;;;;;;;0.60;0.60;;;10.70;99.90;;;;;;5000195;28;20170;-86
2022/09/27 01:30:31;;;;;;;1.53;0.60;;;10.70;99.90;;;;;;5007405;28;20229;-86
2022/09/27 01:33:34;;;;;;;0.67;0.50;;;10.70;99.90;;;;;;5017031;28;20211;-86
2022/09/27 01:36:08;;;;;;;0.40;0.40;;;10.70;99.90;;;;;;5000706;28;20202;-86
2022/09/27 01:38:45;;;;;;;0.70;0.57;;;10.70;99.90;;;;;;5000757;28;20172;-86
2022/09/27 01:41:32;;;;;;;1.17;0.50;;;10.70;99.90;;;;;;5016130;28;20185;-86
2022/09/27 01:44:36;;;;;;;0.90;0.50;;;10.70;99.90;;;;;;5016038;28;20208;-86
2022/09/27 01:47:15;;;;;;;0.60;0.60;;;10.60;99.90;;;;;;5014395;28;20190;-86
2022/09/27 01:50:13;;;;;;;1.20;0.60;;;10.60;99.90;;;;;;5022392;28;20181;-86
2022/09/27 01:52:47;;;;;;;1.33;0.63;;;10.60;99.90;;;;;;5015896;28;20212;-86
2022/09/27 01:55:17;;;;;;;0.60;0.60;;;10.60;99.90;;;;;;5027150;28;20209;-86
2022/09/27 01:58:28;;;;;;;0.80;0.70;;;10.60;99.90;;;;;;5015799;28;20253;-86
2022/09/27 02:00:56;;;;;;;0.83;0.57;;;10.60;99.90;;;;;;4999421;28;20179;-86
2022/09/27 02:03:32;;;;;;;1.03;0.60;;;10.60;99.90;;;;;;5023134;28;20182;-86
2022/09/27 02:06:38;;;;;;;0.67;0.67;;;10.60;99.90;;;;;;5052933;28;20205;-86
2022/09/27 02:09:48;;;;;;;0.53;0.53;;;10.60;99.90;;;;;;5022243;28;20175;-86
2022/09/27 02:12:26;;;;;;;1.30;0.70;;;10.60;99.90;;;;;;4999636;28;20194;-86
2022/09/27 02:15:03;;;;;;;1.50;0.50;;;10.60;99.90;;;;;;5015866;28;20202;-86
2022/09/27 02:17:34;;;;;;;0.60;0.60;;;10.60;99.90;;;;;;5014937;28;20202;-86
2022/09/27 02:20:06;;;;;;;0.40;0.40;;;10.70;99.90;;;;;;5015936;28;20217;-86
2022/09/27 02:23:01;;;;;;;0.60;0.60;;;10.70;99.90;;;;;;5016031;28;20219;-86
2022/09/27 02:25:42;;;;;;;0.97;0.70;;;10.70;99.90;;;;;;5030664;28;20195;-86
2022/09/27 02:28:39;;;;;;;0.50;0.50;;;10.70;99.90;;;;;;5031504;28;20233;-87
2022/09/27 02:31:07;;;;;;;0.50;0.50;;;10.70;99.90;;;;;;4999197;28;20187;-86
2022/09/27 02:33:41;;;;;;;2.03;0.53;;;10.70;99.90;;;;;;4998710;28;20226;-86
2022/09/27 02:36:08;;;;;;;0.50;0.50;;;10.70;99.90;;;;;;5005934;28;20189;-86
2022/09/27 02:38:34;;;;;;;0.60;0.60;;;10.70;99.90;;;;;;5034641;28;20213;-86
2022/09/27 02:41:01;;;;;;;0.80;0.70;;;10.70;99.90;;;;;;5017981;28;20190;-87
2022/09/27 02:43:31;;;;;;;0.70;0.60;;;10.70;99.90;;;;;;5018003;28;20182;-86
2022/09/27 02:46:30;;;;;;;0.63;0.60;;;10.70;99.90;;;;;;5029412;28;20209;-86
2022/09/27 02:49:09;;;;;;;0.40;0.40;;;10.70;99.90;;;;;;5012936;28;20244;-86
2022/09/27 02:51:44;;;;;;;0.57;0.57;;;10.80;99.90;;;;;;5023804;28;20212;-86
2022/09/27 02:54:25;;;;;;;2.10;0.40;;;10.80;99.90;;;;;;5017660;28;20181;-87
2022/09/27 02:57:40;;;;;;;1.33;0.50;;;10.80;99.90;;;;;;5023145;28;20191;-86
2022/09/27 03:01:11;;;;;;;0.40;0.40;;;10.80;99.90;;;;;;4933650;29;20200;-86
2022/09/27 03:04:16;;;;;;;0.50;0.50;;;10.80;99.90;;;;;;4935314;29;20220;-87
2022/09/27 03:06:45;;;;;;;0.60;0.50;;;10.80;99.90;;;;;;5001612;28;20202;-86
2022/09/27 03:09:19;;;;;;;0.60;0.60;;;10.70;99.90;;;;;;4997970;28;20208;-86
2022/09/27 03:11:45;;;;;;;1.70;0.70;;;10.70;99.90;;;;;;5006016;28;20217;-86
2022/09/27 03:14:12;;;;;;;2.43;0.90;;;10.70;99.90;;;;;;5017240;28;20189;-86
2022/09/27 03:16:45;;;;;;;3.20;0.90;;;10.70;99.90;;;;;;5033070;28;20285;-86
2022/09/27 03:19:40;;;;;;;1.87;1.00;;;10.60;99.90;;;;;;5028096;28;20197;-86
2022/09/27 03:22:26;;;;;;;1.00;0.90;;;10.60;99.90;;;;;;5003096;28;20316;-86
2022/09/27 03:24:52;;;;;;;2.20;0.90;;;10.60;99.90;;;;;;5011392;28;20205;-86
2022/09/27 03:27:18;;;;;;;3.83;0.93;;;10.60;99.90;;;;;;4997383;28;20174;-86
2022/09/27 03:29:44;;;;;;;4.00;1.40;;;10.50;99.90;;;;;;5006409;28;20178;-86
2022/09/27 03:32:10;;;;;;;1.50;0.93;;;10.50;99.90;;;;;;5016995;28;20182;-86
2022/09/27 03:34:50;;;;;;;2.70;0.93;;;10.50;99.90;;;;;;5015378;28;20189;-86
2022/09/27 03:37:16;;;;;;;1.53;1.07;;;10.50;99.90;;;;;;4997692;28;20206;-87
2022/09/27 03:39:42;;;;;;;3.20;1.13;;;10.50;99.90;;;;;;5006132;28;20276;-86
2022/09/27 03:42:22;;;;;;;2.57;1.10;;;10.50;99.90;;;;;;5014198;28;20202;-86
2022/09/27 03:44:50;;;;;;;2.87;1.13;;;10.40;99.90;;;;;;5020698;28;20201;-86
2022/09/27 03:47:16;;;;;;;4.40;1.40;;;10.50;99.90;;;;;;5015856;28;20182;-86
2022/09/27 03:49:42;;;;;;;5.17;1.37;;;10.50;99.90;;;;;;5026662;28;20269;-87
2022/09/27 03:52:08;;;;;;;3.23;1.33;;;10.50;99.90;;;;;;5013014;28;20269;-86
2022/09/27 03:54:34;;;;;;;3.30;1.40;;;10.40;99.90;;;;;;5028701;28;20283;-86
2022/09/27 03:57:00;;;;;;;6.10;1.63;;;10.40;99.90;;;;;;5016078;28;20241;-86
2022/09/27 03:59:26;;;;;;;3.80;1.33;;;10.40;99.90;;;;;;5013828;28;20274;-86
2022/09/27 04:02:25;;;;;;;5.13;1.77;;;10.40;99.90;;;;;;5012313;28;20214;-86
2022/09/27 04:05:10;;;;;;;6.30;2.43;;;10.40;99.90;;;;;;5031910;28;20290;-86
2022/09/27 04:07:36;;;;;;;5.73;2.70;;;10.40;99.90;;;;;;5010478;28;20596;-86
2022/09/27 04:10:04;;;;;;;4.40;2.67;;;10.40;99.90;;;;;;5000707;28;20183;-86
2022/09/27 04:12:32;;;;;;;3.63;2.20;;;10.40;99.90;;;;;;4997414;28;20193;-86
2022/09/27 04:14:59;;;;;;;3.80;1.70;;;10.40;99.90;;;;;;5010933;28;20234;-86
2022/09/27 04:18:00;;;;;;;5.83;2.63;;;10.30;99.90;;;;;;4968419;28;20209;-86
2022/09/27 04:20:33;;;;;;;4.23;1.60;;;10.30;99.90;;;;;;5016231;28;20277;-86
2022/09/27 04:23:03;;;;;;;7.13;1.80;;;10.30;99.90;;;;;;5034622;23;20246;-36
2022/09/27 04:25:31;;;;;;;4.60;1.70;;;10.30;99.90;;;;;;5026287;28;20170;-36
2022/09/27 04:28:01;;;;;;;3.27;1.83;;;10.30;99.90;;;;;;5031949;28;20683;-35
2022/09/27 04:30:29;;;;;;;4.53;1.77;;;10.30;99.90;;;;;;5032651;28;20194;-36
2022/09/27 04:33:27;;;;;;;6.10;1.73;;;10.30;99.90;;;;;;5012943;28;20174;-35
2022/09/27 04:39:02;;;;;;;5.53;2.33;;;10.10;99.90;;;;;;5039837;28;20185;-35
2022/09/27 04:41:29;;;;;;;4.50;1.97;;;10.10;99.90;;;;;;5029141;28;20202;-34
2022/09/27 04:43:55;;;;;;;12.57;2.83;;;10.00;99.90;;;;;;4997569;28;20202;-35
2022/09/27 04:46:22;;;;;;;5.47;2.30;;;10.00;99.90;;;;;;5019256;28;20178;-35
2022/09/27 04:48:48;;;;;;;8.63;2.50;;;10.00;99.90;;;;;;5015993;28;20181;-35
2022/09/27 04:51:16;;;;;;;6.67;2.67;;;10.00;99.90;;;;;;5010382;28;20237;-34
2022/09/27 04:53:46;;;;;;;4.63;2.17;;;10.00;99.90;;;;;;4996713;28;20316;-37
2022/09/27 04:56:13;;;;;;;4.10;2.00;;;10.00;99.90;;;;;;5001952;28;20182;-37
2022/09/27 04:58:39;;;;;;;4.83;2.33;;;10.00;99.90;;;;;;5026801;28;20228;-37
2022/09/27 05:01:06;;;;;;;4.83;1.90;;;9.90;99.90;;;;;;5015933;28;20201;-36
2022/09/27 05:04:03;;;;;;;4.67;2.03;;;9.80;99.90;;;;;;5026151;28;20190;-37
2022/09/27 05:06:30;;;;;;;3.67;1.33;;;9.80;99.90;;;;;;5012746;28;20213;-37
2022/09/27 05:09:04;;;;;;;2.37;1.10;;;9.80;99.90;;;;;;5018810;28;20182;-37
2022/09/27 05:11:36;;;;;;;1.87;0.97;;;9.80;99.90;;;;;;5035395;28;20221;-37
2022/09/27 05:14:14;;;;;;;2.57;1.20;;;9.80;99.90;;;;;;5041356;28;20182;-37
2022/09/27 05:16:56;;;;;;;2.00;1.27;;;9.80;99.90;;;;;;5032129;28;20212;-37
2022/09/27 05:19:25;;;;;;;2.60;1.43;;;9.80;99.90;;;;;;5041300;28;20264;-37
2022/09/27 05:22:19;;;;;;;2.97;1.40;;;9.80;99.90;;;;;;5031053;28;20324;-38
2022/09/27 05:24:46;;;;;;;3.90;1.87;;;9.80;99.90;;;;;;5030991;28;20181;-37
2022/09/27 05:27:17;;;;;;;3.70;1.60;;;9.80;99.90;;;;;;5013632;28;20201;-37
2022/09/27 05:29:44;;;;;;;2.17;1.00;;;9.70;99.90;;;;;;4997939;28;20175;-37
2022/09/27 05:32:15;;;;;;;2.03;1.20;;;9.80;99.90;;;;;;5017536;28;20229;-37
2022/09/27 05:34:43;;;;;;;1.67;1.30;;;9.70;99.90;;;;;;5015860;28;20195;-37
2022/09/27 05:37:09;;;;;;;3.10;1.47;;;9.80;99.90;;;;;;5015656;28;20198;-37
2022/09/27 05:39:38;;;;;;;2.80;1.40;;;9.80;99.90;;;;;;5019768;28;20193;-37
2022/09/27 05:42:06;;;;;;;4.87;1.80;;;9.70;99.90;;;;;;5015773;28;20211;-37
2022/09/27 05:44:32;;;;;;;3.73;1.40;;;9.70;99.90;;;;;;4999655;28;20209;-37
2022/09/27 05:47:03;;;;;;;2.40;1.53;;;9.70;99.90;;;;;;5034647;28;20541;-37
2022/09/27 05:49:31;;;;;;;2.47;1.60;;;9.80;99.90;;;;;;5035767;28;20200;-37
2022/09/27 05:51:57;;;;;;;3.53;1.53;;;9.70;99.90;;;;;;5017676;28;20204;-37
2022/09/27 05:54:28;;;;;;;2.90;1.70;;;9.80;99.90;;;;;;5015798;28;20185;-37
2022/09/27 05:56:59;;;;;;;5.03;1.50;;;9.80;99.90;;;;;;5031436;28;20205;-37
2022/09/27 05:59:46;;;;;;;3.37;1.17;;;9.70;99.90;;;;;;5006655;28;20216;-37
2022/09/27 06:02:21;;;;;;;1.93;1.30;;;9.70;99.90;;;;;;5037898;28;20206;-37
2022/09/27 06:05:06;;;;;;;1.37;1.10;;;9.70;99.90;;;;;;5029679;28;20216;-36
2022/09/27 06:07:41;;;;;;;1.70;1.00;;;9.60;99.90;;;;;;5035263;28;20193;-37
2022/09/27 06:10:18;;;;;;;1.70;1.10;;;9.60;99.90;;;;;;5022935;28;20193;-37
2022/09/27 06:12:45;;;;;;;1.70;1.07;;;9.70;99.90;;;;;;5017827;28;20206;-37
2022/09/27 06:15:40;;;;;;;1.53;1.00;;;9.70;99.90;;;;;;5028566;28;20185;-36
2022/09/27 06:18:17;;;;;;;4.50;1.33;;;9.60;99.90;;;;;;5034696;28;20189;-37
2022/09/27 06:20:45;;;;;;;5.67;1.30;;;9.60;99.90;;;;;;5019798;28;20229;-37
2022/09/27 06:23:12;;;;;;;1.57;1.00;;;9.60;99.90;;;;;;5015916;28;20297;-37
2022/09/27 06:25:39;;;;;;;1.90;1.00;;;9.60;99.90;;;;;;5030991;28;20259;-37
2022/09/27 06:28:15;;;;;;;1.67;1.10;;;9.70;99.90;;;;;;5019614;28;20190;-37
2022/09/27 06:30:48;;;;;;;2.43;1.23;;;9.70;99.90;;;;;;5014557;28;20229;-37
2022/09/27 06:33:22;;;;;;;2.67;1.10;;;9.70;99.90;;;;;;5025737;28;20281;-37
2022/09/27 06:35:53;;;;;;;4.13;1.77;;;9.70;99.90;;;;;;5032394;28;20186;-37
2022/09/27 06:38:21;;;;;;;4.77;2.47;;;9.70;99.90;;;;;;5015075;28;20182;-37
2022/09/27 06:41:07;;;;;;;5.53;3.17;;;9.70;99.90;;;;;;5016960;28;20213;-37
2022/09/27 06:43:50;;;;;;;5.70;2.73;;;9.80;99.90;;;;;;5031830;28;20181;-37
2022/09/27 06:46:36;;;;;;;2.20;1.50;;;9.80;99.90;;;;;;5031511;28;20299;-37
2022/09/27 06:49:12;;;;;;;1.93;1.73;;;9.80;99.90;;;;;;5034723;28;20777;-37
2022/09/27 06:51:39;;;;;;;1.90;1.30;;;9.90;99.90;;;;;;5033987;28;20466;-37
2022/09/27 06:54:06;;;;;;;3.27;1.27;;;9.90;99.90;;;;;;5028051;28;20225;-37
2022/09/27 06:56:32;;;;;;;1.83;0.90;;;10.00;99.90;;;;;;5051164;28;20221;-37
2022/09/27 07:01:44;;;;;;;2.73;0.97;;;10.00;99.90;;;;;;5049922;28;20202;-37
2022/09/27 07:04:28;;;;;;;1.53;0.80;;;10.00;99.90;;;;;;5028949;28;20245;-38
2022/09/27 07:07:15;;;;;;;1.20;0.80;;;10.00;99.90;;;;;;5028556;28;20189;-37
2022/09/27 07:09:46;;;;;;;2.13;0.70;;;10.00;99.90;;;;;;5015488;28;20273;-38
2022/09/27 07:12:12;;;;;;;1.07;0.73;;;10.00;99.90;;;;;;5024255;28;20296;-37
2022/09/27 07:14:39;;;;;;;1.40;1.00;;;10.10;99.90;;;;;;5023494;28;20178;-37
2022/09/27 07:17:06;;;;;;;1.13;0.90;;;10.10;99.90;;;;;;5016796;28;20178;-37
2022/09/27 07:19:36;;;;;;;1.53;0.90;;;10.00;99.90;;;;;;5016918;28;20174;-37
2022/09/27 07:22:02;;;;;;;4.50;1.10;;;10.10;99.90;;;;;;5009759;28;20309;-37
2022/09/27 07:24:29;;;;;;;2.90;0.90;;;10.00;99.90;;;;;;5032580;28;20182;-37
2022/09/27 07:26:55;;;;;;;1.17;0.73;;;10.10;99.90;;;;;;5026744;28;20811;-37
2022/09/27 07:29:21;;;;;;;1.60;0.70;;;10.10;99.90;;;;;;5013584;28;20183;-37
2022/09/27 07:31:51;;;;;;;1.13;0.80;;;10.20;99.90;;;;;;5015213;28;20194;-37
2022/09/27 07:34:18;;;;;;;3.50;1.30;;;10.20;99.90;;;;;;5010393;28;20256;-37
2022/09/27 07:36:44;;;;;;;2.23;1.30;;;10.20;99.90;;;;;;5014388;28;20223;-37
2022/09/27 07:39:11;;;;;;;2.47;0.90;;;10.30;99.90;;;;;;5025653;28;20178;-37
2022/09/27 07:41:39;;;;;;;0.73;0.70;;;10.30;99.90;;;;;;5014666;28;20289;-37
2022/09/27 07:44:06;;;;;;;1.83;0.80;;;10.40;99.90;;;;;;5024642;28;20200;-37
2022/09/27 07:46:38;;;;;;;2.00;0.90;;;10.40;99.90;;;;;;5040794;28;20182;-37
2022/09/27 07:49:16;;;;;;;0.87;0.70;;;10.40;99.90;;;;;;5026981;28;20236;-37
2022/09/27 07:52:00;;;;;;;1.07;0.50;;;10.50;99.90;;;;;;5031727;28;20318;-37
2022/09/27 07:54:36;;;;;;;0.97;0.80;;;10.50;99.90;;;;;;4999405;28;20190;-37
2022/09/27 07:57:04;;;;;;;1.90;0.90;;;10.50;99.90;;;;;;5015067;28;20182;-37
2022/09/27 07:59:32;;;;;;;1.60;0.87;;;10.50;99.90;;;;;;5015310;28;20194;-37
2022/09/27 08:01:59;;;;;;;0.60;0.60;;;10.40;99.90;;;;;;5030408;28;20207;-37
2022/09/27 08:04:25;;;;;;;0.80;0.70;;;10.30;99.90;;;;;;5020709;28;20186;-38
2022/09/27 08:06:51;;;;;;;0.60;0.40;;;10.30;99.90;;;;;;5013579;28;20266;-36
2022/09/27 08:09:17;;;;;;;0.60;0.60;;;10.30;99.90;;;;;;5015757;28;20179;-35
2022/09/27 08:11:44;;;;;;;4.83;3.87;;;10.30;99.90;;;;;;5009190;28;20256;-35
2022/09/27 08:14:12;;;;;;;0.80;0.70;;;10.40;99.90;;;;;;5016585;28;20231;-35
2022/09/27 08:16:41;;;;;;;0.40;0.40;;;10.50;99.90;;;;;;5015324;28;20179;-35
2022/09/27 08:19:10;;;;;;;0.53;0.53;;;10.50;99.90;;;;;;5029778;28;20277;-35
2022/09/27 08:22:06;;;;;;;0.57;0.50;;;10.60;99.90;;;;;;5007953;28;20283;-35
2022/09/27 08:24:55;;;;;;;1.13;0.63;;;10.60;99.90;;;;;;5042353;28;20186;-35
2022/09/27 08:27:41;;;;;;;1.57;0.70;;;10.70;99.90;;;;;;5049467;28;20186;-35
2022/09/27 08:30:18;;;;;;;1.67;1.20;;;10.80;99.90;;;;;;5032683;28;20186;-35
2022/09/27 08:32:44;;;;;;;2.07;1.13;;;10.90;99.90;;;;;;5016574;28;20189;-34
2022/09/27 08:35:14;;;;;;;2.37;1.20;;;11.00;99.90;;;;;;5032865;28;20182;-35
2022/09/27 08:37:40;;;;;;;4.77;3.40;;;11.00;99.90;;;;;;5032586;28;20227;-35
2022/09/27 08:40:43;;;;;;;1.70;1.30;;;11.00;99.90;;;;;;5061289;28;20199;-35
2022/09/27 08:43:46;;;;;;;3.47;0.93;;;11.00;99.90;;;;;;5070328;28;20221;-34
2022/09/27 08:46:25;;;;;;;4.53;1.57;;;11.00;99.90;;;;;;5029582;28;20202;-35
2022/09/27 08:49:37;;;;;;;5.53;1.50;;;10.80;99.90;;;;;;5050333;28;20190;-35
2022/09/27 08:52:11;;;;;;;2.77;0.93;;;10.70;99.90;;;;;;5032578;28;20194;-35
2022/09/27 08:54:38;;;;;;;2.10;0.90;;;10.50;99.90;;;;;;5017290;28;20250;-35
2022/09/27 08:57:11;;;;;;;3.50;2.10;;;10.50;99.90;;;;;;5033383;28;20167;-35
2022/09/27 08:59:48;;;;;;;1.33;0.97;;;10.40;99.90;;;;;;5015059;28;20170;-35
2022/09/27 09:02:23;;;;;;;3.17;1.20;;;10.30;99.90;;;;;;5015360;28;20215;-35
2022/09/27 09:08:10;;;;;;;1.63;1.10;;;10.10;99.90;;;;;;5045698;28;20257;-41
2022/09/27 09:14:02;;;;;;;1.33;1.20;;;10.00;99.90;;;;;;5026279;28;20177;-40
2022/09/27 09:16:57;;;;;;;2.33;1.30;;;10.10;99.90;;;;;;5008380;28;20230;-37
2022/09/27 09:20:02;;;;;;;1.30;1.20;;;10.30;99.90;;;;;;5020754;23;20248;-33
2022/09/27 09:23:16;;;;;;;2.00;1.20;;;10.50;99.90;;;;;;5032755;28;20242;-33
2022/09/27 09:25:54;;;;;;;1.43;0.80;;;10.60;99.90;;;;;;5002228;28;20219;-32
2022/09/27 09:28:39;;;;;;;2.43;0.83;;;10.70;99.90;;;;;;4989855;28;20183;-33
2022/09/27 09:31:05;;;;;;;1.83;1.10;;;10.90;99.90;;;;;;4995194;28;20326;-32
2022/09/27 09:33:36;;;;;;;1.23;1.00;;;11.00;99.90;;;;;;5006670;28;20278;-34
2022/09/27 09:36:12;;;;;;;1.73;0.90;;;11.10;99.90;;;;;;5010014;28;20188;-32
2022/09/27 09:38:40;;;;;;;0.83;0.83;;;11.10;99.90;;;;;;4993384;28;20179;-33
2022/09/27 09:41:19;;;;;;;0.90;0.70;;;11.20;99.90;;;;;;4969971;28;20920;-33
2022/09/27 09:43:59;;;;;;;0.60;0.60;;;11.30;99.90;;;;;;4986125;28;20184;-33
2022/09/27 09:46:44;;;;;;;2.00;0.80;;;11.40;99.90;;;;;;4966862;28;20182;-33
2022/09/27 09:49:22;;;;;;;2.00;1.00;;;11.40;99.90;;;;;;4989681;28;20230;-32
2022/09/27 09:51:58;;;;;;;1.10;0.97;;;11.50;99.90;;;;;;4974892;28;20177;-32
2022/09/27 09:54:35;;;;;;;2.50;1.03;;;11.70;99.90;;;;;;5011180;28;20180;-33
2022/09/27 09:57:19;;;;;;;1.27;1.07;;;11.70;99.90;;;;;;4999429;28;20183;-31
2022/09/27 10:00:03;;;;;;;2.70;1.27;;;11.80;99.90;;;;;;4993017;28;20266;-32
2022/09/27 10:02:41;;;;;;;3.40;1.10;;;12.00;99.90;;;;;;5011309;28;20242;-33
2022/09/27 10:05:24;;;;;;;2.63;1.40;;;12.00;99.90;;;;;;5004196;28;20179;-33
2022/09/27 10:08:07;;;;;;;2.90;1.23;;;11.90;99.90;;;;;;4976161;28;20184;-33
2022/09/27 10:10:33;;;;;;;2.57;1.20;;;12.00;99.90;;;;;;4992730;28;20207;-32
2022/09/27 10:13:31;;;;;;;2.33;1.37;;;11.90;99.90;;;;;;4984547;28;20204;-32
2022/09/27 10:16:04;;;;;;;1.93;1.60;;;12.00;99.90;;;;;;4988609;28;20192;-33
2022/09/27 10:18:31;;;;;;;3.57;1.50;;;12.20;99.90;;;;;;4974463;28;20178;-33
2022/09/27 10:21:05;;;;;;;2.80;1.23;;;12.50;99.90;;;;;;4996345;28;20218;-33
2022/09/27 10:23:31;;;;;;;2.07;1.10;;;12.80;99.90;;;;;;5000406;28;20243;-33
2022/09/27 10:26:18;;;;;;;3.70;1.50;;;13.10;99.90;;;;;;5002167;28;20181;-34
2022/09/27 10:28:49;;;;;;;2.23;1.30;;;13.10;99.90;;;;;;4998139;28;20196;-33
2022/09/27 10:31:20;;;;;;;1.93;1.00;;;13.10;99.90;;;;;;4980231;28;20281;-34
2022/09/27 10:34:04;;;;;;;3.47;1.07;;;13.10;99.90;;;;;;5009845;28;20270;-33
2022/09/27 10:36:37;;;;;;;4.63;1.13;;;13.10;99.90;;;;;;4981073;28;20181;-34
2022/09/27 10:39:05;;;;;;;1.50;0.83;;;12.90;99.90;;;;;;4997607;28;20179;-34
2022/09/27 10:41:41;;;;;;;3.73;1.10;;;13.00;99.90;;;;;;4979509;28;20549;-33
2022/09/27 10:44:31;;;;;;;2.67;1.10;;;13.00;99.90;;;;;;5010895;28;20181;-35
2022/09/27 10:47:22;;;;;;;2.57;1.10;;;13.20;99.90;;;;;;4973103;28;20188;-34
2022/09/27 10:50:24;;;;;;;1.97;0.80;;;13.50;99.90;;;;;;4992230;28;20287;-33
2022/09/27 10:53:18;;;;;;;1.10;1.00;;;13.40;99.90;;;;;;4995385;28;20207;-33
2022/09/27 10:55:48;;;;;;;0.70;0.70;;;13.30;99.90;;;;;;4991565;28;20184;-33
2022/09/27 10:58:25;;;;;;;0.90;0.90;;;13.10;99.90;;;;;;4991848;28;20190;-33
2022/09/27 11:01:05;;;;;;;1.23;0.80;;;13.00;99.90;;;;;;4992898;28;20205;-32
2022/09/27 11:03:49;;;;;;;2.43;0.93;;;12.90;99.90;;;;;;4991565;28;20274;-33
2022/09/27 11:06:21;;;;;;;1.73;0.63;;;12.80;99.90;;;;;;5004937;28;20198;-32
2022/09/27 11:08:52;;;;;;;1.33;0.83;;;12.70;99.90;;;;;;5010465;28;20192;-33
2022/09/27 11:11:27;;;;;;;1.53;0.70;;;12.70;99.90;;;;;;5005440;28;20226;-32
2022/09/27 11:13:58;;;;;;;2.00;0.90;;;12.70;99.90;;;;;;5010697;28;20270;-33
2022/09/27 11:16:30;;;;;;;1.67;0.97;;;12.70;99.90;;;;;;4970915;28;20194;-33
2022/09/27 11:18:59;;;;;;;0.70;0.67;;;12.80;99.90;;;;;;4989023;28;20188;-33
2022/09/27 11:21:45;;;;;;;1.23;0.90;;;12.80;99.90;;;;;;4990227;28;20216;-33
2022/09/27 11:24:56;;;;;;;1.03;0.80;;;12.80;99.90;;;;;;4991650;28;20187;-33
2022/09/27 11:27:56;;;;;;;0.60;0.60;;;12.90;99.90;;;;;;4990011;28;20189;-33
2022/09/27 11:30:51;;;;;;;1.43;0.90;;;13.00;99.90;;;;;;4994713;28;20190;-33
2022/09/27 11:33:45;;;;;;;2.17;1.00;;;13.00;99.90;;;;;;4994330;28;20202;-33
2022/09/27 11:36:27;;;;;;;1.40;0.80;;;13.00;99.90;;;;;;4989938;28;20192;-33
2022/09/27 11:39:27;;;;;;;1.93;0.63;;;13.00;99.90;;;;;;4991496;28;20174;-33
2022/09/27 11:42:50;;;;;;;1.23;0.70;;;13.00;99.90;;;;;;4989987;28;20245;-33
2022/09/27 11:45:44;;;;;;;1.73;0.80;;;13.00;99.90;;;;;;4981902;28;20196;-33
2022/09/27 11:48:28;;;;;;;0.90;0.70;;;13.00;99.90;;;;;;4977037;28;20190;-33
2022/09/27 11:51:12;;;;;;;1.97;0.70;;;13.00;99.90;;;;;;5010538;28;20293;-33
2022/09/27 11:53:50;;;;;;;1.57;0.73;;;13.00;99.90;;;;;;4991989;28;20205;-34
2022/09/27 11:56:40;;;;;;;1.30;0.83;;;13.00;99.90;;;;;;4989567;28;20178;-32
2022/09/27 11:59:25;;;;;;;2.03;0.77;;;12.90;99.90;;;;;;4990564;28;20277;-33
2022/09/27 12:02:16;;;;;;;2.97;0.67;;;12.80;99.90;;;;;;4992821;28;20229;-34
2022/09/27 12:04:49;;;;;;;3.17;0.67;;;12.70;99.90;;;;;;4991548;28;20217;-33
2022/09/27 12:07:37;;;;;;;1.00;0.63;;;12.70;99.90;;;;;;5006392;28;20177;-32
2022/09/27 12:10:12;;;;;;;0.93;0.60;;;12.50;99.90;;;;;;5008185;28;20203;-33
2022/09/27 12:12:44;;;;;;;1.77;0.87;;;12.50;99.90;;;;;;4990948;28;20317;-33
2022/09/27 12:15:21;;;;;;;4.73;2.10;;;12.40;99.90;;;;;;4992520;28;20185;-33
2022/09/27 12:17:55;;;;;;;2.27;0.90;;;12.30;99.90;;;;;;4991725;28;20263;-33
2022/09/27 12:20:29;;;;;;;2.63;0.90;;;12.20;99.90;;;;;;4988546;28;20296;-33
2022/09/27 12:23:10;;;;;;;2.10;0.90;;;11.80;99.90;;;;;;5009478;28;20180;-33
2022/09/27 12:25:59;;;;;;;1.57;1.10;;;11.60;99.90;;;;;;5006943;28;20310;-33
2022/09/27 12:28:54;;;;;;;1.10;0.97;;;11.40;99.90;;;;;;5008478;28;20211;-34
2022/09/27 12:31:24;;;;;;;2.10;0.80;;;11.30;99.90;;;;;;4999518;28;20283;-33
2022/09/27 12:34:03;;;;;;;2.17;0.80;;;11.30;99.90;;;;;;5014819;28;20199;-32
2022/09/27 12:36:36;;;;;;;2.67;0.83;;;11.20;99.90;;;;;;4990107;28;20241;-34
2022/09/27 12:39:21;;;;;;;1.10;0.80;;;11.20;99.90;;;;;;5019339;28;20180;-33
2022/09/27 12:42:00;;;;;;;1.73;0.80;;;11.20;99.90;;;;;;5013555;28;20192;-34
2022/09/27 12:44:38;;;;;;;2.70;1.87;;;11.30;99.90;;;;;;4994940;28;20175;-35
2022/09/27 12:47:36;;;;;;;2.80;1.97;;;11.40;99.90;;;;;;5006914;28;20288;-33
2022/09/27 12:50:29;;;;;;;1.60;0.90;;;11.50;99.90;;;;;;4997330;28;20214;-33
2022/09/27 12:53:18;;;;;;;1.57;0.83;;;11.60;99.90;;;;;;4990280;28;20200;-33
2022/09/27 12:56:08;;;;;;;2.33;1.00;;;11.60;99.90;;;;;;5007975;28;20208;-34
2022/09/27 12:58:43;;;;;;;2.63;1.03;;;11.60;99.90;;;;;;4975624;28;20203;-34
2022/09/27 13:01:25;;;;;;;1.83;0.93;;;11.70;99.90;;;;;;4992067;28;20193;-34
2022/09/27 13:04:28;;;;;;;2.27;0.93;;;11.70;99.90;;;;;;5004519;28;20190;-33
2022/09/27 13:07:23;;;;;;;1.47;0.80;;;11.80;99.90;;;;;;4990527;28;20222;-33
2022/09/27 13:10:29;;;;;;;1.40;1.10;;;11.70;99.90;;;;;;4989528;28;20287;-35
2022/09/27 13:13:04;;;;;;;2.27;1.20;;;12.00;99.90;;;;;;4956375;28;20238;-34
2022/09/27 13:15:38;;;;;;;1.20;0.87;;;12.30;99.90;;;;;;4982160;28;20186;-33
2022/09/27 13:18:25;;;;;;;1.50;0.87;;;12.50;99.90;;;;;;4993693;28;20187;-34
2022/09/27 13:20:51;;;;;;;1.10;1.00;;;12.70;99.90;;;;;;4998044;28;20683;-34
2022/09/27 13:23:27;;;;;;;2.60;1.10;;;12.80;99.90;;;;;;4985955;28;20271;-34
2022/09/27 13:25:58;;;;;;;0.80;0.40;;;12.90;99.90;;;;;;4988878;28;20211;-34
2022/09/27 13:28:51;;;;;;;0.87;0.60;;;13.10;99.90;;;;;;4984123;28;20177;-34
2022/09/27 13:31:52;;;;;;;2.77;0.63;;;13.30;99.90;;;;;;5008673;28;20194;-34
2022/09/27 13:34:44;;;;;;;2.00;1.00;;;13.30;99.90;;;;;;5005069;28;20179;-34
2022/09/27 13:37:26;;;;;;;1.33;0.50;;;13.30;99.90;;;;;;4981218;28;20639;-33
2022/09/27 13:40:09;;;;;;;1.70;0.60;;;13.30;99.90;;;;;;4991996;28;20195;-34
2022/09/27 13:42:55;;;;;;;1.83;0.60;;;13.20;99.90;;;;;;4996861;28;20265;-34
2022/09/27 13:45:36;;;;;;;1.97;0.70;;;13.10;99.90;;;;;;4979994;28;20202;-34
2022/09/27 13:48:40;;;;;;;0.67;0.60;;;13.20;99.90;;;;;;5004339;28;20223;-35
2022/09/27 13:51:41;;;;;;;1.50;0.50;;;13.10;99.90;;;;;;4958638;28;20215;-34
2022/09/27 13:54:33;;;;;;;1.53;1.10;;;12.80;99.90;;;;;;4996219;28;20250;-34